Time;durP1;ratioP1;P1;durP2;ratioP2;P2;SDS_P1;SDS_P2;PMS_P1;PMS_P2;Temp;Humidity;BMP_temperature;BMP_pressure;BME280_temperature;BME280_humidity;BME280_pressure;Samples;Min_cycle;Max_cycle;Signal;HPM_P1;HPM_P2
2023/05/12 00:01:14;;;;;;;30.73;16.30;;;11.70;99.90;;;;;;5037189;28;20506;-84
2023/05/12 00:03:42;;;;;;;34.03;16.88;;;11.70;99.90;;;;;;5017797;28;20128;-84
2023/05/12 00:06:07;;;;;;;33.63;16.98;;;11.70;99.90;;;;;;5036886;28;20139;-84
2023/05/12 00:08:33;;;;;;;31.60;18.48;;;11.70;99.90;;;;;;5024602;28;20036;-83
2023/05/12 00:11:00;;;;;;;33.75;18.17;;;11.70;99.90;;;;;;5022120;28;20033;-83
2023/05/12 00:13:27;;;;;;;40.30;20.10;;;11.70;99.90;;;;;;5014165;28;20401;-83
2023/05/12 00:15:55;;;;;;;38.97;20.02;;;11.70;99.90;;;;;;5023519;28;20055;-84
2023/05/12 00:18:21;;;;;;;51.85;23.55;;;11.70;99.90;;;;;;5016445;28;20038;-83
2023/05/12 00:20:47;;;;;;;52.47;24.50;;;11.70;99.90;;;;;;5036763;28;20040;-83
2023/05/12 00:23:13;;;;;;;50.60;23.73;;;11.70;99.90;;;;;;5030706;28;20041;-83
2023/05/12 00:25:38;;;;;;;53.38;24.73;;;11.80;99.90;;;;;;5021352;28;20416;-84
2023/05/12 00:28:04;;;;;;;59.40;26.08;;;11.80;99.90;;;;;;5022352;28;20130;-84
2023/05/12 00:30:30;;;;;;;66.90;28.35;;;11.80;99.90;;;;;;5031426;28;20132;-83
2023/05/12 00:32:57;;;;;;;74.05;29.15;;;11.80;99.90;;;;;;5030816;28;20203;-84
2023/05/12 00:35:25;;;;;;;78.25;32.65;;;11.80;99.90;;;;;;5044790;28;20053;-84
2023/05/12 00:37:51;;;;;;;73.95;31.20;;;11.80;99.90;;;;;;5034110;28;20311;-83
2023/05/12 00:40:17;;;;;;;67.78;29.48;;;11.80;99.90;;;;;;5038907;28;20043;-84
2023/05/12 00:42:44;;;;;;;68.68;30.10;;;11.80;99.90;;;;;;5032293;28;20499;-83
2023/05/12 00:45:10;;;;;;;60.78;26.15;;;11.80;99.90;;;;;;5023847;28;20127;-83
2023/05/12 00:47:36;;;;;;;72.05;28.77;;;11.80;99.90;;;;;;5021062;28;20602;-83
2023/05/12 00:50:06;;;;;;;65.00;28.52;;;11.80;99.90;;;;;;5032151;28;20531;-84
2023/05/12 00:52:32;;;;;;;62.95;27.05;;;11.80;99.90;;;;;;5023576;28;20048;-83
2023/05/12 00:54:59;;;;;;;63.67;27.35;;;11.90;99.90;;;;;;5016260;28;20055;-83
2023/05/12 00:57:26;;;;;;;56.75;24.67;;;11.90;99.90;;;;;;5018280;28;20102;-83
2023/05/12 00:59:53;;;;;;;58.78;25.23;;;11.90;99.90;;;;;;5034145;28;20037;-83
2023/05/12 01:02:22;;;;;;;63.13;26.02;;;11.90;99.90;;;;;;5022766;28;20129;-83
2023/05/12 01:04:49;;;;;;;61.97;25.65;;;11.90;99.90;;;;;;5031186;28;20140;-83
2023/05/12 01:07:19;;;;;;;61.55;26.77;;;11.90;99.90;;;;;;5020298;28;20039;-83
2023/05/12 01:09:45;;;;;;;69.30;26.10;;;11.90;99.90;;;;;;5028855;28;20171;-84
2023/05/12 01:12:13;;;;;;;57.50;25.48;;;12.00;99.90;;;;;;5020043;28;20105;-83
2023/05/12 01:14:40;;;;;;;54.45;24.48;;;11.90;99.90;;;;;;5017809;28;20037;-83
2023/05/12 01:17:11;;;;;;;57.60;24.75;;;11.90;99.90;;;;;;5022472;28;20112;-83
2023/05/12 01:19:42;;;;;;;60.75;26.25;;;12.00;99.90;;;;;;5012226;28;20021;-84
2023/05/12 01:22:09;;;;;;;55.08;26.02;;;12.00;99.90;;;;;;5016597;28;20435;-84
2023/05/12 01:24:46;;;;;;;51.70;24.92;;;12.10;99.90;;;;;;5022659;28;20612;-84
2023/05/12 01:27:14;;;;;;;54.50;25.60;;;12.10;99.90;;;;;;5019250;28;20048;-83
2023/05/12 01:29:40;;;;;;;57.13;25.17;;;12.00;99.90;;;;;;5014770;28;20041;-84
2023/05/12 01:32:07;;;;;;;62.72;25.35;;;12.10;99.90;;;;;;5021093;28;20271;-83
2023/05/12 01:34:33;;;;;;;56.95;24.77;;;12.00;99.90;;;;;;5020705;28;20052;-83
2023/05/12 01:36:59;;;;;;;55.60;25.40;;;12.10;99.90;;;;;;5016612;28;20037;-84
2023/05/12 01:39:25;;;;;;;55.17;23.92;;;12.10;99.90;;;;;;5018078;28;20107;-84
2023/05/12 01:41:50;;;;;;;55.80;24.60;;;12.10;99.90;;;;;;5021872;28;20498;-84
2023/05/12 01:44:16;;;;;;;58.30;26.23;;;12.10;99.90;;;;;;5030199;28;20053;-83
2023/05/12 01:47:02;;;;;;;56.65;26.40;;;12.10;99.90;;;;;;5021693;28;20044;-83
2023/05/12 01:49:27;;;;;;;58.88;25.30;;;12.10;99.90;;;;;;5013588;28;20460;-84
2023/05/12 01:51:53;;;;;;;54.80;24.85;;;12.10;99.90;;;;;;5023626;28;20044;-84
2023/05/12 01:54:39;;;;;;;52.35;24.95;;;12.20;99.90;;;;;;5020922;28;20041;-84
2023/05/12 01:57:05;;;;;;;58.60;25.25;;;12.20;99.90;;;;;;5014725;28;20072;-84
2023/05/12 01:59:30;;;;;;;58.22;26.08;;;12.20;99.90;;;;;;5036708;28;20072;-84
2023/05/12 02:01:56;;;;;;;55.53;26.20;;;12.20;99.90;;;;;;5033005;28;20569;-84
2023/05/12 02:04:21;;;;;;;61.70;26.05;;;12.20;99.90;;;;;;5018887;28;20106;-84
2023/05/12 02:06:47;;;;;;;65.95;26.42;;;12.20;99.90;;;;;;5018500;28;20041;-84
2023/05/12 02:09:13;;;;;;;59.97;26.63;;;12.20;99.90;;;;;;5027892;28;20107;-84
2023/05/12 02:11:41;;;;;;;57.28;26.77;;;12.20;99.90;;;;;;5019690;28;20057;-84
2023/05/12 02:14:07;;;;;;;56.20;25.80;;;12.30;99.90;;;;;;5021716;28;20049;-84
2023/05/12 02:16:32;;;;;;;68.18;29.20;;;12.30;99.90;;;;;;5023748;28;20696;-84
2023/05/12 02:19:01;;;;;;;65.03;30.02;;;12.30;99.90;;;;;;5039436;28;20036;-84
2023/05/12 02:21:26;;;;;;;62.88;29.60;;;12.30;99.90;;;;;;5024836;28;20042;-84
2023/05/12 02:23:52;;;;;;;55.17;27.70;;;12.30;99.90;;;;;;5021516;28;20428;-83
2023/05/12 02:26:18;;;;;;;56.20;27.92;;;12.30;99.90;;;;;;5024916;28;20104;-84
2023/05/12 02:28:44;;;;;;;55.65;28.20;;;12.30;99.90;;;;;;5033511;28;20458;-85
2023/05/12 02:31:09;;;;;;;58.22;28.10;;;12.30;99.90;;;;;;5023934;28;20053;-84
2023/05/12 02:33:35;;;;;;;60.63;28.33;;;12.40;99.90;;;;;;5023171;28;20423;-84
2023/05/12 02:36:04;;;;;;;53.53;27.65;;;12.40;99.90;;;;;;5037479;28;20411;-84
2023/05/12 02:38:30;;;;;;;55.25;27.40;;;12.40;99.90;;;;;;5024604;28;20045;-84
2023/05/12 02:40:56;;;;;;;58.70;26.65;;;12.40;99.90;;;;;;5019764;28;20480;-84
2023/05/12 02:43:21;;;;;;;51.97;26.23;;;12.40;99.90;;;;;;5020572;28;20049;-84
2023/05/12 02:45:50;;;;;;;50.65;26.10;;;12.40;99.90;;;;;;5033507;28;20053;-84
2023/05/12 02:48:16;;;;;;;54.55;27.83;;;12.40;99.90;;;;;;5023355;28;20402;-84
2023/05/12 02:50:42;;;;;;;56.30;28.08;;;12.40;99.90;;;;;;5022194;28;20049;-84
2023/05/12 02:53:08;;;;;;;52.63;28.13;;;12.30;99.90;;;;;;5025219;28;20063;-84
2023/05/12 02:55:33;;;;;;;51.58;27.30;;;12.40;99.90;;;;;;5034583;28;20451;-83
2023/05/12 02:57:59;;;;;;;53.42;28.38;;;12.40;99.90;;;;;;5023633;28;20190;-84
2023/05/12 03:00:25;;;;;;;55.15;26.10;;;12.40;99.90;;;;;;5023903;28;20126;-84
2023/05/12 03:02:50;;;;;;;47.38;25.48;;;12.40;99.90;;;;;;5024438;28;20037;-84
2023/05/12 03:05:19;;;;;;;49.60;25.60;;;12.40;99.90;;;;;;5034265;28;20122;-84
2023/05/12 03:07:48;;;;;;;57.03;27.38;;;12.30;99.90;;;;;;5021385;28;20398;-84
2023/05/12 03:10:13;;;;;;;46.97;25.55;;;12.30;99.90;;;;;;5023546;28;20041;-85
2023/05/12 03:12:39;;;;;;;53.10;27.33;;;12.40;99.90;;;;;;5025546;28;20511;-85
2023/05/12 03:15:06;;;;;;;51.17;26.10;;;12.30;99.90;;;;;;5022953;28;20553;-84
2023/05/12 03:17:32;;;;;;;48.95;24.33;;;12.30;99.90;;;;;;5036561;28;20041;-83
2023/05/12 03:19:57;;;;;;;49.85;24.15;;;12.30;99.90;;;;;;5034442;28;20048;-84
2023/05/12 03:22:23;;;;;;;47.92;25.55;;;12.30;99.90;;;;;;5023784;28;20044;-84
2023/05/12 03:24:49;;;;;;;57.00;26.45;;;12.30;99.90;;;;;;5023084;28;20116;-84
2023/05/12 03:27:14;;;;;;;50.50;25.23;;;12.30;99.90;;;;;;5024513;28;20041;-85
2023/05/12 03:29:40;;;;;;;57.85;26.25;;;12.30;99.90;;;;;;5032695;28;20502;-84
2023/05/12 03:32:06;;;;;;;48.72;26.95;;;12.30;99.90;;;;;;5020922;28;20040;-84
2023/05/12 03:34:33;;;;;;;51.72;26.05;;;12.30;99.90;;;;;;5021675;28;20200;-84
2023/05/12 03:36:58;;;;;;;52.92;26.13;;;12.30;99.90;;;;;;5029160;28;20504;-85
2023/05/12 03:39:24;;;;;;;49.78;26.83;;;12.30;99.90;;;;;;5027663;28;20203;-84
2023/05/12 03:41:50;;;;;;;55.38;26.75;;;12.40;99.90;;;;;;5021909;28;20502;-84
2023/05/12 03:44:15;;;;;;;46.75;25.55;;;12.40;99.90;;;;;;5032489;28;20045;-84
2023/05/12 03:46:41;;;;;;;53.80;28.20;;;12.40;99.90;;;;;;5022134;28;20071;-84
2023/05/12 03:49:07;;;;;;;47.10;25.77;;;12.30;99.90;;;;;;5022414;28;20044;-84
2023/05/12 03:51:32;;;;;;;55.17;27.02;;;12.40;99.90;;;;;;5023648;28;20564;-84
2023/05/12 03:53:58;;;;;;;47.33;26.63;;;12.30;99.90;;;;;;5034593;28;20044;-84
2023/05/12 03:56:24;;;;;;;47.95;25.52;;;12.30;99.90;;;;;;5031945;28;20485;-84
2023/05/12 03:58:50;;;;;;;44.45;25.20;;;12.40;99.90;;;;;;5021092;28;20037;-84
2023/05/12 04:01:15;;;;;;;49.00;26.27;;;12.40;99.90;;;;;;5022556;28;20052;-84
2023/05/12 04:03:42;;;;;;;47.80;25.92;;;12.40;99.90;;;;;;5018061;28;20052;-84
2023/05/12 04:06:07;;;;;;;51.00;26.33;;;12.40;99.90;;;;;;5018191;28;20048;-84
2023/05/12 04:08:33;;;;;;;55.40;27.83;;;12.40;99.90;;;;;;5024375;28;20052;-84
2023/05/12 04:11:00;;;;;;;51.45;26.58;;;12.40;99.90;;;;;;5030343;28;20037;-84
2023/05/12 04:13:32;;;;;;;56.88;26.83;;;12.40;99.90;;;;;;5020986;28;20100;-84
2023/05/12 04:15:58;;;;;;;51.65;27.52;;;12.50;99.90;;;;;;5031670;28;20052;-84
2023/05/12 04:18:26;;;;;;;49.22;25.45;;;12.50;99.90;;;;;;5022393;28;20029;-84
2023/05/12 04:20:52;;;;;;;46.67;24.83;;;12.50;99.90;;;;;;5015581;28;20623;-84
2023/05/12 04:23:18;;;;;;;49.88;25.85;;;12.60;99.90;;;;;;5023727;28;20507;-84
2023/05/12 04:25:44;;;;;;;49.80;26.30;;;12.50;99.90;;;;;;5017668;28;20276;-84
2023/05/12 04:28:10;;;;;;;53.60;27.77;;;12.50;99.90;;;;;;5017694;28;20193;-84
2023/05/12 04:30:39;;;;;;;54.80;28.42;;;12.60;99.90;;;;;;5019888;28;20171;-85
2023/05/12 04:33:05;;;;;;;52.22;27.13;;;12.60;99.90;;;;;;5023154;28;20073;-84
2023/05/12 04:35:31;;;;;;;49.60;27.40;;;12.50;99.90;;;;;;5032400;28;20517;-84
2023/05/12 04:37:57;;;;;;;53.03;27.70;;;12.50;99.90;;;;;;5032497;28;20049;-84
2023/05/12 04:40:23;;;;;;;55.88;28.40;;;12.60;99.90;;;;;;5017235;28;20470;-84
2023/05/12 04:42:48;;;;;;;55.42;28.67;;;12.60;99.90;;;;;;5022310;28;20134;-84
2023/05/12 04:45:14;;;;;;;50.78;27.17;;;12.70;99.90;;;;;;5017662;28;20535;-84
2023/05/12 04:47:42;;;;;;;62.50;28.65;;;12.60;99.90;;;;;;5024537;28;20098;-84
2023/05/12 04:50:15;;;;;;;58.80;29.40;;;12.60;99.90;;;;;;5033858;28;20217;-84
2023/05/12 04:52:41;;;;;;;57.28;28.83;;;12.70;99.90;;;;;;5049378;28;20495;-84
2023/05/12 04:55:07;;;;;;;57.33;28.80;;;12.80;99.90;;;;;;5015443;28;20037;-84
2023/05/12 04:57:33;;;;;;;53.55;28.65;;;12.80;99.90;;;;;;5035985;28;20076;-84
2023/05/12 04:59:58;;;;;;;57.25;28.90;;;12.80;99.90;;;;;;5033967;28;20516;-84
2023/05/12 05:02:25;;;;;;;57.22;28.60;;;12.80;99.90;;;;;;5036983;28;20120;-85
2023/05/12 05:04:51;;;;;;;53.17;29.85;;;12.80;99.90;;;;;;5021887;28;20029;-84
2023/05/12 05:07:17;;;;;;;56.33;27.88;;;12.80;99.90;;;;;;5030826;28;20475;-84
2023/05/12 05:09:42;;;;;;;54.45;28.50;;;12.90;99.90;;;;;;5020341;28;20052;-84
2023/05/12 05:12:08;;;;;;;46.75;26.92;;;12.90;99.90;;;;;;5035602;28;20041;-84
2023/05/12 05:14:34;;;;;;;53.10;27.85;;;12.90;99.90;;;;;;5032600;28;20048;-84
2023/05/12 05:17:03;;;;;;;52.92;28.60;;;13.00;99.90;;;;;;5019940;28;20412;-84
2023/05/12 05:19:28;;;;;;;47.92;26.63;;;12.90;99.90;;;;;;5033840;28;20047;-84
2023/05/12 05:21:54;;;;;;;52.20;29.48;;;12.90;99.90;;;;;;5022257;28;20033;-83
2023/05/12 05:24:20;;;;;;;53.47;28.30;;;13.00;99.90;;;;;;5018429;28;20045;-84
2023/05/12 05:26:45;;;;;;;50.33;27.42;;;12.90;99.90;;;;;;5035322;28;20116;-84
2023/05/12 05:29:11;;;;;;;52.88;27.67;;;12.90;99.90;;;;;;5020294;28;20041;-84
2023/05/12 05:31:37;;;;;;;50.53;27.55;;;12.90;99.90;;;;;;5021521;28;20132;-83
2023/05/12 05:34:06;;;;;;;55.85;28.35;;;12.90;99.90;;;;;;5021236;28;20140;-84
2023/05/12 05:36:32;;;;;;;49.53;27.88;;;13.00;99.90;;;;;;5021576;28;20580;-84
2023/05/12 05:39:01;;;;;;;51.38;30.23;;;13.00;99.90;;;;;;5016174;28;20052;-84
2023/05/12 05:41:27;;;;;;;57.72;27.75;;;13.10;99.90;;;;;;5020034;28;20048;-84
2023/05/12 05:43:52;;;;;;;59.60;29.48;;;13.00;99.90;;;;;;5021427;28;20041;-84
2023/05/12 05:46:20;;;;;;;47.25;28.50;;;12.90;99.90;;;;;;5020638;28;20117;-84
2023/05/12 05:48:46;;;;;;;49.83;27.40;;;13.10;99.90;;;;;;5016603;28;20460;-84
2023/05/12 05:51:12;;;;;;;51.05;28.77;;;13.10;99.90;;;;;;5023775;28;20422;-83
2023/05/12 05:53:37;;;;;;;48.55;27.13;;;12.90;99.90;;;;;;5040372;28;20512;-84
2023/05/12 05:56:03;;;;;;;48.67;28.08;;;12.90;99.90;;;;;;5023144;28;20110;-84
2023/05/12 05:58:29;;;;;;;49.38;26.48;;;13.10;99.90;;;;;;5026090;28;20456;-84
2023/05/12 06:00:54;;;;;;;51.28;28.95;;;12.90;99.90;;;;;;5024713;28;20043;-84
2023/05/12 06:03:21;;;;;;;50.72;27.88;;;13.10;99.90;;;;;;5019527;28;20040;-84
2023/05/12 06:05:50;;;;;;;53.70;28.98;;;13.20;99.90;;;;;;5020743;28;20399;-84
2023/05/12 06:08:15;;;;;;;50.40;28.40;;;13.20;99.90;;;;;;5023468;28;20160;-83
2023/05/12 06:10:41;;;;;;;48.17;28.02;;;13.30;99.90;;;;;;5023536;28;20115;-84
2023/05/12 06:13:07;;;;;;;54.47;28.77;;;13.30;99.90;;;;;;5022938;28;20542;-84
2023/05/12 06:15:33;;;;;;;50.97;27.95;;;13.10;99.90;;;;;;5024317;28;20056;-84
2023/05/12 06:17:59;;;;;;;48.63;28.25;;;13.30;99.90;;;;;;5021619;28;20555;-84
2023/05/12 06:20:24;;;;;;;50.60;28.13;;;13.30;99.90;;;;;;5024753;28;20084;-84
2023/05/12 06:22:50;;;;;;;49.50;28.33;;;13.30;99.90;;;;;;5025228;28;20128;-84
2023/05/12 06:25:16;;;;;;;47.40;27.02;;;13.50;99.90;;;;;;5015432;28;20049;-84
2023/05/12 06:27:41;;;;;;;50.33;27.48;;;13.40;99.90;;;;;;5021861;28;20040;-84
2023/05/12 06:30:08;;;;;;;50.28;27.13;;;13.50;99.90;;;;;;5033175;28;20037;-84
2023/05/12 06:32:34;;;;;;;51.25;29.23;;;13.60;99.90;;;;;;5032523;28;20484;-84
2023/05/12 06:34:59;;;;;;;48.25;27.38;;;13.60;99.90;;;;;;5023875;28;20064;-84
2023/05/12 06:37:25;;;;;;;56.20;29.10;;;13.30;99.90;;;;;;5027914;28;20102;-84
2023/05/12 06:39:51;;;;;;;46.38;27.52;;;13.40;99.90;;;;;;5031968;28;20043;-84
2023/05/12 06:42:16;;;;;;;49.13;28.67;;;13.50;99.90;;;;;;5021730;28;20443;-84
2023/05/12 06:44:42;;;;;;;49.20;27.67;;;13.50;99.90;;;;;;5025443;28;20041;-84
2023/05/12 06:47:08;;;;;;;48.38;27.73;;;13.70;99.90;;;;;;5015929;28;20045;-84
2023/05/12 06:49:37;;;;;;;49.03;28.67;;;13.80;99.90;;;;;;5025741;28;20048;-84
2023/05/12 06:52:06;;;;;;;45.50;26.95;;;13.80;99.90;;;;;;5035468;28;20053;-84
2023/05/12 06:54:32;;;;;;;47.15;27.10;;;13.90;99.90;;;;;;5030144;28;20171;-84
2023/05/12 06:56:58;;;;;;;49.13;27.13;;;13.90;99.90;;;;;;5031088;28;20512;-84
2023/05/12 06:59:24;;;;;;;47.83;26.60;;;13.80;99.90;;;;;;5022825;28;20049;-84
2023/05/12 07:01:50;;;;;;;45.83;26.73;;;13.70;99.90;;;;;;5021302;28;20597;-84
2023/05/12 07:04:15;;;;;;;43.08;26.55;;;13.70;99.90;;;;;;5017321;28;20074;-83
2023/05/12 07:06:41;;;;;;;45.47;26.98;;;13.80;99.90;;;;;;5023004;28;20045;-84
2023/05/12 07:09:07;;;;;;;42.70;26.38;;;13.80;99.90;;;;;;5025119;28;20067;-84
2023/05/12 07:11:32;;;;;;;45.33;26.92;;;13.70;99.90;;;;;;5035412;28;20053;-84
2023/05/12 07:13:58;;;;;;;41.30;25.38;;;13.70;99.90;;;;;;5019944;28;20464;-84
2023/05/12 07:16:24;;;;;;;46.20;26.60;;;13.80;99.90;;;;;;5022894;28;20062;-84
2023/05/12 07:18:49;;;;;;;43.45;26.25;;;13.80;99.90;;;;;;5019609;28;20075;-84
2023/05/12 07:21:15;;;;;;;44.08;27.73;;;13.90;99.90;;;;;;5020615;28;20071;-84
2023/05/12 07:23:41;;;;;;;40.30;26.08;;;14.00;99.90;;;;;;5024495;28;20459;-85
2023/05/12 07:26:07;;;;;;;44.30;27.35;;;14.00;99.90;;;;;;5019446;28;20482;-84
2023/05/12 07:28:35;;;;;;;45.30;28.65;;;14.20;99.90;;;;;;5022229;28;20757;-84
2023/05/12 07:31:06;;;;;;;47.28;29.15;;;14.30;99.90;;;;;;5025308;28;20036;-84
2023/05/12 07:33:32;;;;;;;48.38;28.88;;;14.30;99.90;;;;;;5024734;28;20033;-84
2023/05/12 07:35:58;;;;;;;47.90;29.63;;;14.50;99.90;;;;;;5019052;28;20040;-84
2023/05/12 07:38:23;;;;;;;51.30;30.27;;;14.70;99.90;;;;;;5025016;28;20191;-84
2023/05/12 07:40:50;;;;;;;45.05;28.38;;;14.80;99.90;;;;;;5038645;28;20532;-85
2023/05/12 07:43:18;;;;;;;44.03;28.98;;;14.90;99.90;;;;;;5038196;28;20047;-85
2023/05/12 07:45:45;;;;;;;43.00;27.70;;;15.10;99.90;;;;;;5021998;28;20508;-83
2023/05/12 07:48:10;;;;;;;41.45;27.60;;;15.30;99.90;;;;;;5034936;28;20232;-85
2023/05/12 07:50:36;;;;;;;41.58;29.80;;;15.10;99.90;;;;;;5032003;28;20222;-85
2023/05/12 07:53:03;;;;;;;46.47;28.55;;;15.20;99.90;;;;;;5022347;28;20041;-85
2023/05/12 07:55:29;;;;;;;43.20;29.05;;;15.70;99.90;;;;;;5029583;28;20040;-85
2023/05/12 07:57:54;;;;;;;42.45;29.20;;;16.00;99.90;;;;;;5034304;28;20041;-85
2023/05/12 08:00:20;;;;;;;44.05;29.42;;;16.30;99.90;;;;;;5032816;28;20177;-84
2023/05/12 08:02:46;;;;;;;44.72;29.33;;;16.30;99.90;;;;;;5016777;28;20064;-84
2023/05/12 08:05:12;;;;;;;40.95;28.73;;;16.10;99.90;;;;;;5015672;28;20415;-85
2023/05/12 08:07:38;;;;;;;41.45;28.48;;;16.00;99.90;;;;;;5021889;28;20049;-85
2023/05/12 08:10:05;;;;;;;39.28;28.35;;;16.20;99.90;;;;;;5028422;28;20044;-85
2023/05/12 08:12:32;;;;;;;37.90;27.88;;;16.30;99.90;;;;;;5031107;28;20045;-85
2023/05/12 08:15:01;;;;;;;42.40;28.15;;;16.40;99.90;;;;;;5015656;28;20041;-85
2023/05/12 08:17:26;;;;;;;38.33;28.08;;;16.60;99.90;;;;;;5018653;28;20075;-85
2023/05/12 08:19:52;;;;;;;38.58;28.48;;;16.70;99.90;;;;;;5027854;28;20465;-85
2023/05/12 08:22:18;;;;;;;38.92;29.20;;;16.90;99.90;;;;;;5016625;28;20056;-84
2023/05/12 08:24:46;;;;;;;36.75;26.70;;;16.30;99.90;;;;;;5028693;28;20037;-85
2023/05/12 08:27:12;;;;;;;37.60;27.48;;;16.70;99.90;;;;;;5021817;28;20041;-85
2023/05/12 08:29:38;;;;;;;37.35;27.25;;;17.00;99.90;;;;;;5030055;28;20036;-85
2023/05/12 08:32:04;;;;;;;38.47;27.45;;;17.10;99.90;;;;;;5016650;28;20037;-86
2023/05/12 08:34:30;;;;;;;38.65;26.63;;;16.90;99.90;;;;;;5029273;28;20041;-84
2023/05/12 08:36:55;;;;;;;38.63;27.65;;;17.40;99.90;;;;;;5019592;28;20041;-85
2023/05/12 08:39:21;;;;;;;36.17;27.20;;;17.50;99.90;;;;;;5021824;28;20054;-85
2023/05/12 08:41:56;;;;;;;38.47;27.10;;;17.70;99.90;;;;;;5021504;28;20026;-85
2023/05/12 08:44:23;;;;;;;37.15;28.33;;;17.50;99.90;;;;;;5017448;28;20045;-85
2023/05/12 08:46:49;;;;;;;37.70;27.63;;;18.10;99.90;;;;;;5020844;28;20072;-85
2023/05/12 08:49:19;;;;;;;36.53;27.33;;;18.00;99.90;;;;;;5022447;28;20037;-85
2023/05/12 08:51:46;;;;;;;35.58;27.10;;;18.20;99.90;;;;;;5015104;28;20045;-85
2023/05/12 08:54:13;;;;;;;40.42;27.65;;;18.20;99.90;;;;;;5020723;28;20400;-85
2023/05/12 08:56:43;;;;;;;32.05;26.02;;;18.70;99.90;;;;;;5029846;28;20097;-84
2023/05/12 08:59:09;;;;;;;32.50;25.80;;;18.80;99.90;;;;;;5029296;28;20049;-85
2023/05/12 09:01:41;;;;;;;34.95;27.05;;;18.80;99.90;;;;;;5018644;28;20033;-85
2023/05/12 09:04:07;;;;;;;33.08;25.52;;;19.10;99.90;;;;;;5018955;28;20581;-86
2023/05/12 09:06:34;;;;;;;29.90;23.42;;;19.20;99.90;;;;;;5020028;28;20044;-86
2023/05/12 09:09:02;;;;;;;28.42;22.58;;;19.40;99.90;;;;;;5028827;28;20045;-85
2023/05/12 09:11:27;;;;;;;30.52;23.30;;;19.40;99.90;;;;;;5037530;28;20116;-85
2023/05/12 09:14:08;;;;;;;28.00;23.00;;;19.40;99.90;;;;;;5020962;28;20152;-85
2023/05/12 09:16:41;;;;;;;31.30;23.27;;;19.40;99.90;;;;;;5024215;28;20501;-85
2023/05/12 09:19:10;;;;;;;27.70;22.88;;;18.90;99.90;;;;;;5029241;28;20044;-85
2023/05/12 09:21:36;;;;;;;26.45;22.83;;;19.40;99.90;;;;;;5018817;28;20886;-85
2023/05/12 09:24:06;;;;;;;28.02;22.30;;;19.70;99.90;;;;;;5022035;28;20055;-85
2023/05/12 09:26:50;;;;;;;28.95;23.50;;;19.50;99.90;;;;;;5027143;28;20125;-85
2023/05/12 09:29:19;;;;;;;28.10;23.17;;;19.70;99.90;;;;;;5013605;28;20075;-85
2023/05/12 09:31:53;;;;;;;31.95;23.27;;;19.90;99.90;;;;;;5027754;28;20040;-86
2023/05/12 09:34:34;;;;;;;27.90;22.77;;;20.10;99.90;;;;;;5031976;28;20091;-86
2023/05/12 09:37:05;;;;;;;26.08;22.40;;;20.30;99.90;;;;;;5033363;28;20037;-85
2023/05/12 09:39:32;;;;;;;31.13;22.70;;;19.80;99.90;;;;;;5029673;28;20702;-84
2023/05/12 09:41:57;;;;;;;26.52;22.00;;;20.00;99.90;;;;;;5024097;28;20210;-85
2023/05/12 09:44:24;;;;;;;26.10;23.30;;;19.40;99.90;;;;;;5031701;28;20685;-85
2023/05/12 09:46:50;;;;;;;30.75;23.90;;;19.30;99.90;;;;;;5021519;28;20147;-85
2023/05/12 09:49:21;;;;;;;26.88;23.02;;;19.40;99.90;;;;;;5033081;28;20057;-86
2023/05/12 09:52:00;;;;;;;26.52;23.70;;;19.40;99.90;;;;;;5026118;28;20064;-85
2023/05/12 09:54:27;;;;;;;30.08;23.60;;;19.00;99.90;;;;;;5021316;28;20044;-85
2023/05/12 09:56:58;;;;;;;24.67;22.15;;;19.80;99.90;;;;;;5022031;28;20040;-85
2023/05/12 09:59:32;;;;;;;29.60;23.60;;;20.00;99.90;;;;;;5030395;28;20396;-86
2023/05/12 10:02:06;;;;;;;25.08;22.42;;;20.00;99.90;;;;;;5021172;28;20037;-86
2023/05/12 10:04:42;;;;;;;28.70;23.57;;;20.20;99.90;;;;;;5029828;28;20082;-85
2023/05/12 10:07:10;;;;;;;25.27;22.58;;;20.20;99.90;;;;;;5023123;28;20045;-85
2023/05/12 10:09:40;;;;;;;28.00;22.52;;;20.50;99.90;;;;;;5020500;28;20049;-86
2023/05/12 10:12:07;;;;;;;26.23;22.02;;;20.50;99.90;;;;;;5036918;28;20037;-86
2023/05/12 10:14:34;;;;;;;26.88;22.15;;;20.90;99.90;;;;;;5021537;28;20042;-85
2023/05/12 10:17:05;;;;;;;25.27;20.92;;;20.90;99.90;;;;;;5019951;28;20026;-86
2023/05/12 10:19:32;;;;;;;23.88;21.17;;;21.30;99.90;;;;;;5015127;28;20041;-86
2023/05/12 10:21:57;;;;;;;24.77;21.20;;;20.60;99.90;;;;;;5022347;28;20044;-86
2023/05/12 10:24:27;;;;;;;22.42;20.08;;;21.10;99.90;;;;;;5031200;28;20042;-86
2023/05/12 10:26:58;;;;;;;22.40;19.27;;;20.80;99.90;;;;;;5032478;28;20259;-86
2023/05/12 10:29:28;;;;;;;22.08;19.48;;;20.40;99.90;;;;;;5018926;28;20140;-85
2023/05/12 10:31:56;;;;;;;21.67;19.38;;;21.10;99.90;;;;;;5015698;28;20380;-86
2023/05/12 10:34:21;;;;;;;23.30;19.80;;;21.00;99.90;;;;;;5016576;28;20045;-86
2023/05/12 10:36:49;;;;;;;21.40;19.10;;;21.20;99.90;;;;;;5020317;28;20500;-86
2023/05/12 10:39:15;;;;;;;23.02;20.27;;;21.50;99.90;;;;;;5036867;28;20476;-85
2023/05/12 10:41:41;;;;;;;21.95;19.65;;;20.90;99.90;;;;;;5022614;28;20037;-86
2023/05/12 10:44:09;;;;;;;21.70;19.40;;;21.60;99.90;;;;;;5019453;28;20049;-86
2023/05/12 10:46:38;;;;;;;20.88;18.67;;;21.40;99.90;;;;;;5035490;28;20045;-86
2023/05/12 10:49:11;;;;;;;21.73;19.40;;;21.40;99.90;;;;;;5025010;28;20434;-86
2023/05/12 10:51:43;;;;;;;23.85;21.23;;;21.60;99.90;;;;;;5034863;28;20043;-85
2023/05/12 10:54:10;;;;;;;21.92;19.58;;;21.00;99.90;;;;;;5037154;28;20048;-86
2023/05/12 10:56:35;;;;;;;21.60;19.30;;;21.50;99.90;;;;;;5035464;28;20039;-86
2023/05/12 10:59:16;;;;;;;19.55;17.33;;;21.70;99.90;;;;;;5021995;28;20041;-86
2023/05/12 11:01:56;;;;;;;21.67;19.40;;;22.10;99.90;;;;;;5028013;28;20033;-86
2023/05/12 11:04:23;;;;;;;20.10;18.02;;;21.30;99.90;;;;;;5024132;28;20045;-86
2023/05/12 11:06:58;;;;;;;19.30;16.90;;;21.60;99.90;;;;;;5022537;28;20072;-86
2023/05/12 11:09:24;;;;;;;18.42;15.55;;;22.20;99.90;;;;;;5022747;28;20052;-86
2023/05/12 11:11:50;;;;;;;18.02;15.88;;;22.30;99.90;;;;;;5017837;28;20029;-87
2023/05/12 11:14:22;;;;;;;18.05;16.08;;;22.40;99.90;;;;;;5034087;28;20463;-86
2023/05/12 11:16:47;;;;;;;20.60;15.90;;;22.60;99.90;;;;;;5026019;28;20037;-86
2023/05/12 11:19:13;;;;;;;14.60;13.07;;;22.80;99.90;;;;;;5032034;28;20037;-85
2023/05/12 11:21:39;;;;;;;15.00;13.40;;;22.80;99.90;;;;;;5033056;28;20175;-86
2023/05/12 11:24:05;;;;;;;16.98;12.60;;;23.00;99.90;;;;;;5032956;28;20046;-86
2023/05/12 11:26:32;;;;;;;13.63;12.02;;;23.10;99.90;;;;;;5035371;28;20079;-86
2023/05/12 11:29:01;;;;;;;13.93;12.60;;;23.10;99.90;;;;;;5033034;28;20045;-86
2023/05/12 11:31:27;;;;;;;13.27;11.98;;;23.50;99.90;;;;;;5025336;28;20038;-86
2023/05/12 11:34:07;;;;;;;14.68;13.13;;;23.60;99.90;;;;;;5035190;28;20048;-86
2023/05/12 11:36:41;;;;;;;13.60;11.93;;;23.70;99.90;;;;;;5032273;28;20041;-86
2023/05/12 11:39:12;;;;;;;14.02;11.68;;;23.50;99.90;;;;;;5020203;28;20291;-86
2023/05/12 11:41:38;;;;;;;10.85;8.65;;;23.30;99.90;;;;;;5035258;28;20075;-86
2023/05/12 11:44:17;;;;;;;9.38;8.40;;;23.30;99.90;;;;;;5050013;28;20080;-86
2023/05/12 11:47:10;;;;;;;10.07;8.45;;;23.50;99.90;;;;;;5017391;28;20051;-85
2023/05/12 11:49:44;;;;;;;9.85;8.85;;;23.30;99.90;;;;;;5030464;28;20407;-86
2023/05/12 11:52:10;;;;;;;;;;;23.60;99.90;;;;;;5013719;28;20049;-86
2023/05/12 11:54:36;;;;;;;10.98;8.93;;;23.50;99.90;;;;;;5009613;28;19925;-86
2023/05/12 11:57:02;;;;;;;10.77;9.70;;;23.60;99.90;;;;;;5033963;28;20041;-85
2023/05/12 11:59:30;;;;;;;10.02;8.98;;;23.80;99.90;;;;;;5022386;28;20076;-86
2023/05/12 12:02:01;;;;;;;11.93;9.77;;;23.70;99.90;;;;;;5021705;28;20099;-86
2023/05/12 12:04:31;;;;;;;10.50;9.50;;;23.30;99.90;;;;;;5017074;28;20041;-86
2023/05/12 12:06:57;;;;;;;9.00;8.10;;;23.70;99.90;;;;;;5025662;28;20048;-86
2023/05/12 12:09:34;;;;;;;9.27;8.30;;;23.80;99.90;;;;;;5023734;28;20479;-86
2023/05/12 12:12:01;;;;;;;8.52;7.57;;;24.20;99.90;;;;;;5037354;28;20555;-85
2023/05/12 12:14:27;;;;;;;8.88;7.22;;;24.10;99.90;;;;;;5033748;28;20059;-86
2023/05/12 12:16:53;;;;;;;8.25;6.38;;;24.20;99.90;;;;;;5023612;28;20492;-86
2023/05/12 12:19:18;;;;;;;6.95;5.30;;;24.40;99.90;;;;;;5021683;28;20030;-86
2023/05/12 12:21:44;;;;;;;5.40;4.90;;;24.70;99.90;;;;;;5033825;28;20040;-85
2023/05/12 12:24:10;;;;;;;8.05;4.45;;;24.10;99.90;;;;;;5018530;28;20408;-86
2023/05/12 12:26:38;;;;;;;6.55;5.13;;;24.60;99.90;;;;;;5032666;28;20119;-86
2023/05/12 12:29:04;;;;;;;5.65;4.90;;;25.00;99.90;;;;;;5032222;28;20128;-85